Time,TemperatureF,DewpointF,PressureIn,WindDirection,WindDirectionDegrees,WindSpeedMPH,WindSpeedGustMPH,Humidity,HourlyPrecipIn,Conditions,Clouds,dailyrainin,SoftwareType,DateUTC
2013-02-13 00:01:00,29.0,21.0,29.86,NW,321,2.0,4.0,71,0.00,,,0.00,,2013-02-13 05:01:00,
2013-02-13 00:11:00,29.0,21.0,29.86,North,0,0.0,4.0,71,0.00,,,0.00,,2013-02-13 05:11:00,
2013-02-13 00:22:00,29.0,21.0,29.86,North,0,0.0,4.0,71,0.00,,,0.00,,2013-02-13 05:22:00,
2013-02-13 00:32:00,29.0,21.0,29.86,NNW,339,3.0,7.0,71,0.00,,,0.00,,2013-02-13 05:32:00,
2013-02-13 00:42:00,29.0,21.0,29.86,NNW,339,3.0,7.0,71,0.00,,,0.00,,2013-02-13 05:42:00,
2013-02-13 00:52:00,29.0,21.0,29.87,WNW,288,1.0,4.0,72,0.00,,,0.00,,2013-02-13 05:52:00,
2013-02-13 01:02:00,29.0,21.0,29.86,West,266,2.0,5.0,72,0.00,,,0.00,,2013-02-13 06:02:00,
2013-02-13 01:11:00,29.0,21.0,29.86,WNW,288,2.0,5.0,72,0.00,,,0.00,,2013-02-13 06:11:00,
2013-02-13 01:21:00,29.0,21.0,29.86,WNW,288,2.0,5.0,72,0.00,,,0.00,,2013-02-13 06:21:00,
2013-02-13 01:32:00,29.0,21.0,29.86,West,273,2.0,7.0,72,0.00,,,0.00,,2013-02-13 06:32:00,
2013-02-13 01:42:00,29.0,21.0,29.86,WSW,247,0.0,3.0,72,0.00,,,0.00,,2013-02-13 06:42:00,
2013-02-13 01:52:00,29.0,21.0,29.86,WSW,247,0.0,3.0,72,0.00,,,0.00,,2013-02-13 06:52:00,
2013-02-13 02:02:00,29.0,21.0,29.87,SW,231,4.0,6.0,73,0.00,,,0.00,,2013-02-13 07:02:00,
2013-02-13 02:11:00,29.0,21.0,29.86,WNW,282,2.0,5.0,73,0.00,,,0.00,,2013-02-13 07:11:00,
2013-02-13 02:22:00,29.0,21.0,29.86,WNW,282,2.0,5.0,73,0.00,,,0.00,,2013-02-13 07:22:00,
2013-02-13 02:32:00,29.0,21.0,29.86,SW,234,4.0,8.0,72,0.00,,,0.00,,2013-02-13 07:32:00,
2013-02-13 02:42:00,29.0,21.0,29.86,West,270,0.0,7.0,71,0.00,,,0.00,,2013-02-13 07:42:00,
2013-02-13 02:52:00,29.0,21.0,29.86,West,270,0.0,7.0,71,0.00,,,0.00,,2013-02-13 07:52:00,
2013-02-13 03:01:00,29.0,21.0,29.85,WSW,239,2.0,7.0,72,0.00,,,0.00,,2013-02-13 08:01:00,
2013-02-13 03:11:00,29.0,21.0,29.85,WSW,247,0.0,5.0,71,0.00,,,0.00,,2013-02-13 08:11:00,
2013-02-13 03:21:00,29.0,21.0,29.85,WSW,247,0.0,5.0,71,0.00,,,0.00,,2013-02-13 08:21:00,
2013-02-13 03:32:00,29.0,21.0,29.85,WSW,247,1.0,7.0,71,0.00,,,0.00,,2013-02-13 08:32:00,
2013-02-13 03:43:00,29.0,21.0,29.85,WSW,247,1.0,7.0,71,0.00,,,0.00,,2013-02-13 08:43:00,
2013-02-13 03:52:00,29.0,21.0,29.85,NNW,337,3.0,6.0,71,0.00,,,0.00,,2013-02-13 08:52:00,
2013-02-13 04:01:00,28.0,20.0,29.84,SW,228,3.0,7.0,71,0.00,,,0.00,,2013-02-13 09:01:00,
2013-02-13 04:11:00,28.0,20.0,29.84,West,270,0.0,4.0,71,0.00,,,0.00,,2013-02-13 09:11:00,
2013-02-13 04:21:00,28.0,20.0,29.84,West,270,0.0,4.0,71,0.00,,,0.00,,2013-02-13 09:21:00,
2013-02-13 04:31:00,28.0,20.0,29.84,SW,234,3.0,6.0,71,0.00,,,0.00,,2013-02-13 09:31:00,
2013-02-13 04:42:00,28.0,20.0,29.83,SW,225,2.0,6.0,70,0.00,,,0.00,,2013-02-13 09:42:00,
2013-02-13 04:52:00,28.0,20.0,29.83,SW,225,2.0,6.0,70,0.00,,,0.00,,2013-02-13 09:52:00,
2013-02-13 05:01:00,28.0,20.0,29.83,WSW,241,3.0,4.0,70,0.00,,,0.00,,2013-02-13 10:01:00,
2013-02-13 05:11:00,28.0,20.0,29.83,WSW,247,2.0,4.0,70,0.00,,,0.00,,2013-02-13 10:11:00,
2013-02-13 05:21:00,28.0,20.0,29.83,WSW,247,2.0,4.0,70,0.00,,,0.00,,2013-02-13 10:21:00,
2013-02-13 05:32:00,28.0,20.0,29.83,SW,226,3.0,5.0,70,0.00,,,0.00,,2013-02-13 10:32:00,
2013-02-13 05:42:00,28.0,19.0,29.83,West,270,2.0,5.0,69,0.00,,,0.00,,2013-02-13 10:42:00,
2013-02-13 05:52:00,28.0,19.0,29.83,West,270,2.0,5.0,69,0.00,,,0.00,,2013-02-13 10:52:00,
2013-02-13 06:01:00,28.0,20.0,29.83,SW,225,3.0,5.0,70,0.00,,,0.00,,2013-02-13 11:01:00,
2013-02-13 06:11:00,28.0,20.0,29.83,WSW,242,3.0,5.0,70,0.00,,,0.00,,2013-02-13 11:11:00,
2013-02-13 06:22:00,28.0,20.0,29.83,WSW,242,3.0,5.0,70,0.00,,,0.00,,2013-02-13 11:22:00,
2013-02-13 06:32:00,28.0,20.0,29.83,West,270,0.0,0.0,70,0.00,,,0.00,,2013-02-13 11:32:00,
2013-02-13 06:42:00,28.0,20.0,29.82,WSW,245,2.0,5.0,70,0.00,,,0.00,,2013-02-13 11:42:00,
2013-02-13 06:52:00,28.0,20.0,29.82,WSW,245,2.0,5.0,70,0.00,,,0.00,,2013-02-13 11:52:00,
2013-02-13 07:02:00,28.0,20.0,29.82,SW,225,2.0,6.0,70,0.00,,,0.00,,2013-02-13 12:02:00,
2013-02-13 07:11:00,28.0,20.0,29.83,SW,226,2.0,4.0,70,0.00,,,0.00,,2013-02-13 12:11:00,
2013-02-13 07:22:00,28.0,20.0,29.83,SW,226,2.0,4.0,70,0.00,,,0.00,,2013-02-13 12:22:00,
2013-02-13 07:32:00,28.0,19.0,29.83,WSW,247,1.0,6.0,69,0.00,,,0.00,,2013-02-13 12:32:00,
2013-02-13 07:42:00,29.0,20.0,29.83,SW,233,4.0,7.0,69,0.00,,,0.00,,2013-02-13 12:42:00,
2013-02-13 07:52:00,29.0,20.0,29.83,SW,233,4.0,7.0,69,0.00,,,0.00,,2013-02-13 12:52:00,
2013-02-13 08:02:00,29.0,20.0,29.82,West,270,0.0,6.0,69,0.00,,,0.00,,2013-02-13 13:02:00,
2013-02-13 08:11:00,29.0,20.0,29.83,WSW,247,0.0,5.0,69,0.00,,,0.00,,2013-02-13 13:11:00,
2013-02-13 08:21:00,29.0,20.0,29.83,WSW,247,0.0,5.0,69,0.00,,,0.00,,2013-02-13 13:21:00,
2013-02-13 08:32:00,30.0,21.0,29.82,WSW,253,3.0,5.0,68,0.00,,,0.00,,2013-02-13 13:32:00,
2013-02-13 08:42:00,31.0,21.0,29.81,WSW,240,2.0,4.0,67,0.00,,,0.00,,2013-02-13 13:42:00,
2013-02-13 08:52:00,31.0,21.0,29.81,WSW,240,2.0,4.0,67,0.00,,,0.00,,2013-02-13 13:52:00,
2013-02-13 09:01:00,31.0,21.0,29.81,NNW,335,2.0,4.0,67,0.00,,,0.00,,2013-02-13 14:01:00,
2013-02-13 09:11:00,32.0,22.0,29.81,WNW,282,1.0,5.0,66,0.00,,,0.00,,2013-02-13 14:11:00,
2013-02-13 09:21:00,32.0,22.0,29.81,WNW,282,1.0,5.0,66,0.00,,,0.00,,2013-02-13 14:21:00,
2013-02-13 09:32:00,32.0,22.0,29.81,WNW,292,0.0,4.0,65,0.00,,,0.00,,2013-02-13 14:32:00,
2013-02-13 09:42:00,32.0,21.0,29.81,NW,315,1.0,3.0,64,0.00,,,0.00,,2013-02-13 14:42:00,
2013-02-13 09:52:00,32.0,21.0,29.81,NW,315,1.0,3.0,64,0.00,,,0.00,,2013-02-13 14:52:00,
2013-02-13 10:01:00,33.0,21.0,29.81,NW,311,2.0,4.0,62,0.00,,,0.00,,2013-02-13 15:01:00,
2013-02-13 10:11:00,34.0,22.0,29.81,NNW,331,2.0,4.0,61,0.00,,,0.00,,2013-02-13 15:11:00,
2013-02-13 10:21:00,34.0,22.0,29.81,NNW,331,2.0,4.0,61,0.00,,,0.00,,2013-02-13 15:21:00,
2013-02-13 10:32:00,35.0,22.0,29.80,WSW,247,0.0,6.0,58,0.00,,,0.00,,2013-02-13 15:32:00,
2013-02-13 10:42:00,35.0,22.0,29.80,WSW,247,0.0,6.0,58,0.00,,,0.00,,2013-02-13 15:42:00,
2013-02-13 10:52:00,35.0,21.0,29.80,WSW,254,1.0,4.0,57,0.00,,,0.00,,2013-02-13 15:52:00,
2013-02-13 11:01:00,35.0,21.0,29.80,NNW,333,2.0,5.0,57,0.00,,,0.00,,2013-02-13 16:01:00,
2013-02-13 11:11:00,35.0,21.0,29.80,WSW,247,3.0,5.0,56,0.00,,,0.00,,2013-02-13 16:11:00,
2013-02-13 11:21:00,35.0,21.0,29.80,WSW,247,3.0,5.0,56,0.00,,,0.00,,2013-02-13 16:21:00,
2013-02-13 11:32:00,35.0,21.0,29.80,NW,323,1.0,4.0,56,0.00,,,0.00,,2013-02-13 16:32:00,
2013-02-13 11:42:00,35.0,21.0,29.80,NW,323,1.0,4.0,56,0.00,,,0.00,,2013-02-13 16:42:00,
2013-02-13 11:52:00,36.0,21.0,29.80,NNW,337,3.0,5.0,55,0.00,,,0.00,,2013-02-13 16:52:00,
2013-02-13 12:01:00,37.0,22.0,29.79,NNW,337,0.0,4.0,54,0.00,,,0.00,,2013-02-13 17:01:00,
2013-02-13 12:11:00,37.0,21.0,29.78,North,0,2.0,6.0,53,0.00,,,0.00,,2013-02-13 17:11:00,
2013-02-13 12:21:00,37.0,21.0,29.78,North,0,2.0,6.0,53,0.00,,,0.00,,2013-02-13 17:21:00,
2013-02-13 12:32:00,37.0,22.0,29.77,WSW,247,2.0,3.0,54,0.00,,,0.00,,2013-02-13 17:32:00,
2013-02-13 12:42:00,37.0,22.0,29.77,WSW,247,2.0,3.0,54,0.00,,,0.00,,2013-02-13 17:42:00,
2013-02-13 12:52:00,38.0,22.0,29.77,West,275,1.0,4.0,53,0.00,,,0.00,,2013-02-13 17:52:00,
2013-02-13 13:02:00,39.0,23.0,29.77,NNW,337,2.0,3.0,52,0.00,,,0.00,,2013-02-13 18:02:00,
2013-02-13 13:11:00,38.0,21.0,29.77,NNW,330,3.0,4.0,50,0.00,,,0.00,,2013-02-13 18:11:00,
2013-02-13 13:23:00,38.0,21.0,29.77,NNW,330,3.0,4.0,50,0.00,,,0.00,,2013-02-13 18:23:00,
2013-02-13 13:32:00,38.0,21.0,29.75,SSE,157,0.0,6.0,50,0.00,,,0.00,,2013-02-13 18:32:00,
2013-02-13 13:42:00,38.0,21.0,29.75,SSE,157,0.0,6.0,50,0.00,,,0.00,,2013-02-13 18:42:00,
2013-02-13 13:52:00,38.0,21.0,29.75,WNW,291,2.0,7.0,50,0.00,,,0.00,,2013-02-13 18:52:00,
2013-02-13 14:01:00,37.0,20.0,29.75,SW,220,2.0,3.0,50,0.00,,,0.00,,2013-02-13 19:01:00,
2013-02-13 14:11:00,36.0,19.0,29.74,NNW,343,3.0,6.0,50,0.00,,,0.00,,2013-02-13 19:11:00,
2013-02-13 14:21:00,36.0,19.0,29.74,NNW,343,3.0,6.0,50,0.00,,,0.00,,2013-02-13 19:21:00,
2013-02-13 14:32:00,36.0,20.0,29.74,NW,315,3.0,6.0,51,0.00,,,0.00,,2013-02-13 19:32:00,
2013-02-13 14:42:00,36.0,20.0,29.74,NW,315,3.0,6.0,51,0.00,,,0.00,,2013-02-13 19:42:00,
2013-02-13 14:52:00,36.0,20.0,29.73,North,8,3.0,5.0,51,0.00,,,0.00,,2013-02-13 19:52:00,
2013-02-13 15:02:00,36.0,20.0,29.72,NW,315,3.0,4.0,51,0.00,,,0.00,,2013-02-13 20:02:00,
2013-02-13 15:11:00,36.0,20.0,29.72,North,0,1.0,3.0,51,0.02,,,0.02,,2013-02-13 20:11:00,
2013-02-13 15:21:00,36.0,20.0,29.72,North,0,1.0,3.0,51,0.02,,,0.02,,2013-02-13 20:21:00,
2013-02-13 15:31:00,36.0,20.0,29.72,North,350,2.0,4.0,52,0.02,,,0.02,,2013-02-13 20:31:00,
2013-02-13 15:42:00,36.0,20.0,29.71,WNW,292,0.0,3.0,51,0.04,,,0.04,,2013-02-13 20:42:00,
2013-02-13 15:52:00,36.0,20.0,29.71,WNW,292,0.0,3.0,51,0.04,,,0.04,,2013-02-13 20:52:00,
2013-02-13 16:01:00,36.0,20.0,29.70,NNW,348,3.0,4.0,52,0.04,,,0.04,,2013-02-13 21:01:00,
2013-02-13 16:11:00,36.0,20.0,29.70,NNW,337,2.0,3.0,52,0.02,,,0.04,,2013-02-13 21:11:00,
2013-02-13 16:21:00,36.0,20.0,29.70,NNW,337,2.0,3.0,52,0.02,,,0.04,,2013-02-13 21:21:00,
2013-02-13 16:31:00,35.0,19.0,29.69,North,351,2.0,5.0,52,0.04,,,0.06,,2013-02-13 21:31:00,
2013-02-13 16:42:00,34.0,19.0,29.67,North,358,2.0,4.0,53,0.02,,,0.06,,2013-02-13 21:42:00,
2013-02-13 16:52:00,34.0,19.0,29.67,North,358,2.0,4.0,53,0.02,,,0.06,,2013-02-13 21:52:00,
2013-02-13 17:02:00,34.0,19.0,29.68,NNE,22,0.0,4.0,54,0.02,,,0.06,,2013-02-13 22:02:00,
2013-02-13 17:11:00,33.0,18.0,29.68,NNE,22,3.0,5.0,54,0.02,,,0.06,,2013-02-13 22:11:00,
2013-02-13 17:21:00,33.0,18.0,29.68,NNE,22,3.0,5.0,54,0.02,,,0.06,,2013-02-13 22:21:00,
2013-02-13 17:31:00,32.0,18.0,29.68,NE,45,0.0,4.0,55,0.00,,,0.06,,2013-02-13 22:31:00,
2013-02-13 17:42:00,32.0,18.0,29.68,NE,45,0.0,4.0,55,0.00,,,0.06,,2013-02-13 22:42:00,
2013-02-13 17:52:00,31.0,18.0,29.68,NE,43,2.0,4.0,57,0.00,,,0.06,,2013-02-13 22:52:00,
2013-02-13 18:01:00,29.0,16.0,29.68,NE,45,2.0,3.0,59,0.00,,,0.06,,2013-02-13 23:01:00,
2013-02-13 18:11:00,28.0,16.0,29.67,ENE,57,3.0,4.0,61,0.00,,,0.06,,2013-02-13 23:11:00,
2013-02-13 18:21:00,28.0,16.0,29.67,ENE,57,3.0,4.0,61,0.00,,,0.06,,2013-02-13 23:21:00,
2013-02-13 18:32:00,27.0,16.0,29.67,ENE,67,2.0,3.0,62,0.00,,,0.06,,2013-02-13 23:32:00,
2013-02-13 18:42:00,27.0,16.0,29.67,ENE,67,2.0,3.0,62,0.00,,,0.06,,2013-02-13 23:42:00,
2013-02-13 18:52:00,26.0,15.0,29.67,NE,45,0.0,0.0,62,0.00,,,0.06,,2013-02-13 23:52:00,
2013-02-13 19:02:00,26.0,15.0,29.67,NE,45,0.0,0.0,63,0.00,,,0.06,,2013-02-14 00:02:00,
2013-02-13 19:11:00,26.0,15.0,29.67,NE,45,0.0,0.0,63,0.00,,,0.06,,2013-02-14 00:11:00,
2013-02-13 19:22:00,26.0,16.0,29.67,NE,45,0.0,0.0,64,0.00,,,0.06,,2013-02-14 00:22:00,
2013-02-13 19:32:00,25.0,15.0,29.67,ENE,67,0.0,0.0,64,0.00,,,0.06,,2013-02-14 00:32:00,
2013-02-13 19:42:00,25.0,15.0,29.67,ENE,67,0.0,0.0,64,0.00,,,0.06,,2013-02-14 00:42:00,
2013-02-13 19:52:00,24.0,14.0,29.68,SE,135,0.0,0.0,65,0.00,,,0.06,,2013-02-14 00:52:00,
2013-02-13 20:01:00,24.0,14.0,29.67,ESE,112,0.0,0.0,66,0.00,,,0.06,,2013-02-14 01:01:00,
2013-02-13 20:11:00,23.0,14.0,29.69,ENE,67,0.0,0.0,67,0.00,,,0.06,,2013-02-14 01:11:00,
2013-02-13 20:21:00,23.0,14.0,29.69,ENE,67,0.0,0.0,67,0.00,,,0.06,,2013-02-14 01:21:00,
2013-02-13 20:32:00,22.0,13.0,29.69,ENE,67,0.0,0.0,68,0.00,,,0.06,,2013-02-14 01:32:00,
2013-02-13 20:41:00,22.0,13.0,29.69,ENE,67,0.0,0.0,68,0.00,,,0.06,,2013-02-14 01:41:00,
2013-02-13 20:52:00,22.0,13.0,29.69,ENE,67,1.0,4.0,69,0.00,,,0.06,,2013-02-14 01:52:00,
2013-02-13 21:01:00,22.0,13.0,29.69,ENE,67,0.0,3.0,69,0.00,,,0.06,,2013-02-14 02:01:00,
2013-02-13 21:11:00,22.0,14.0,29.70,NNE,22,2.0,4.0,71,0.00,,,0.06,,2013-02-14 02:11:00,
2013-02-13 21:21:00,22.0,14.0,29.70,NNE,22,2.0,4.0,71,0.00,,,0.06,,2013-02-14 02:21:00,
2013-02-13 21:31:00,23.0,15.0,29.70,ENE,67,0.0,3.0,70,0.00,,,0.06,,2013-02-14 02:31:00,
2013-02-13 21:41:00,23.0,15.0,29.70,ENE,67,0.0,3.0,70,0.00,,,0.06,,2013-02-14 02:41:00,
2013-02-13 21:52:00,23.0,15.0,29.70,ENE,67,0.0,3.0,70,0.00,,,0.06,,2013-02-14 02:52:00,
2013-02-13 22:02:00,24.0,15.0,29.71,ENE,67,0.0,0.0,69,0.00,,,0.06,,2013-02-14 03:02:00,
2013-02-13 22:11:00,23.0,15.0,29.71,ENE,67,0.0,0.0,70,0.00,,,0.06,,2013-02-14 03:11:00,
2013-02-13 22:22:00,23.0,15.0,29.71,ENE,67,0.0,0.0,70,0.00,,,0.06,,2013-02-14 03:22:00,
2013-02-13 22:31:00,23.0,15.0,29.71,ENE,67,0.0,0.0,70,0.00,,,0.06,,2013-02-14 03:31:00,
2013-02-13 22:42:00,22.0,14.0,29.71,ENE,67,0.0,0.0,71,0.00,,,0.06,,2013-02-14 03:42:00,
2013-02-13 22:52:00,22.0,14.0,29.71,ENE,67,0.0,0.0,71,0.00,,,0.06,,2013-02-14 03:52:00,
2013-02-13 23:01:00,22.0,14.0,29.71,ENE,67,0.0,0.0,71,0.00,,,0.06,,2013-02-14 04:01:00,
2013-02-13 23:12:00,21.0,13.0,29.70,ENE,67,0.0,0.0,72,0.00,,,0.06,,2013-02-14 04:12:00,
2013-02-13 23:21:00,21.0,13.0,29.70,ENE,67,0.0,0.0,72,0.00,,,0.06,,2013-02-14 04:21:00,
2013-02-13 23:32:00,20.0,12.0,29.70,ENE,67,0.0,0.0,71,0.00,,,0.06,,2013-02-14 04:32:00,
2013-02-13 23:52:00,20.0,12.0,29.72,ENE,67,0.0,0.0,72,0.00,,,0.06,,2013-02-14 04:52:00,